Latest Weather Observations for Coolangatta

IDN60801

Issued at 4:32 pm EST Saturday 4 July 2015 (issued every 30 minutes, with the page automatically refreshed every 10 minutes)

About weather observations | Map of weather stations | Latest weather observations for NSW | Other Formats
Station Details ID: 040717 Name: COOLANGATTA Lat: -28.17 Lon: 153.51 Height: 4.0 m
Data from the previous 72 hours. | See also: Recent months at Coolangatta
Date/Time
EST
Temp
°C
App
Temp
°C
Dew
Point
Rel
Hum
%
Delta-T
°C
Wind Press
QNH
hPa
Press
MSL
hPa
Rain
since 9 am
mm
Dir
 
Spd
km/h
Gust
km/h
Spd
kts
Gust
kts
04/04:30pm 18.1 16.0 11.2 64 3.7 ESE 13 15 7 8 1020.4 1020.4 0.0
04/04:00pm 18.5 16.4 11.1 62 4.0 ESE 13 17 7 9 1020.4 1020.4 0.0
04/03:30pm 19.6 16.7 10.9 57 4.7 ESE 17 20 9 11 1020.5 1020.5 0.0
04/03:00pm 19.9 17.1 11.4 58 4.7 ESE 17 22 9 12 1020.4 1020.4 0.0
04/02:30pm 20.0 17.2 11.5 58 4.7 ESE 17 20 9 11 1020.4 1020.4 0.0
04/02:00pm 20.3 16.9 11.2 56 5.0 ESE 20 24 11 13 1020.5 1020.5 0.0
04/01:30pm 20.8 19.5 11.2 54 5.3 SSW 9 17 5 9 1020.7 1020.7 0.0
04/01:00pm 20.0 17.9 9.9 52 5.4 SSE 11 17 6 9 1021.1 1021.1 0.0
04/12:30pm 20.2 18.1 11.1 56 5.0 SSW 13 20 7 11 1021.4 1021.4 0.0
04/12:00pm 19.6 16.5 10.3 55 5.0 S 17 22 9 12 1022.0 1022.0 0.0
04/11:30am 19.8 16.9 11.0 57 4.8 S 17 24 9 13 1022.6 1022.6 0.0
04/11:00am 19.1 16.8 10.6 58 4.6 SSW 13 17 7 9 1022.9 1022.9 0.0
04/10:30am 18.6 15.5 10.4 59 4.4 S 17 28 9 15 1023.4 1023.4 0.0
04/10:00am 18.2 15.2 10.8 62 4.0 SSW 17 28 9 15 1023.5 1023.5 0.0
04/09:30am 17.5 13.9 9.9 61 4.0 SSW 19 28 10 15 1023.7 1023.7 0.0
04/09:00am 15.8 13.2 9.5 66 3.2 SSW 13 17 7 9 1023.8 1023.8 0.0
04/08:30am 15.3 13.5 9.4 68 3.0 SW 9 13 5 7 1023.6 1023.6 0.0
04/08:00am 14.5 12.2 8.9 69 2.8 SSW 11 17 6 9 1023.2 1023.2 0.0
04/07:30am 12.8 10.4 8.7 76 2.0 S 11 13 6 7 1023.0 1023.0 0.0
04/07:00am 13.0 10.6 8.5 74 2.2 SSW 11 19 6 10 1022.9 1022.9 0.0
04/06:30am 12.8 10.0 8.5 75 2.1 SSW 13 20 7 11 1022.5 1022.5 0.0
04/06:00am 12.9 10.0 8.0 72 2.4 SSW 13 20 7 11 1022.3 1022.3 0.0
04/05:30am 13.2 10.3 8.1 71 2.5 SSW 13 19 7 10 1022.1 1022.1 0.0
04/05:00am 13.7 9.4 7.9 68 2.9 SSW 20 32 11 17 1021.9 1021.9 0.0
04/04:30am 14.2 9.6 8.2 67 3.0 SW 22 35 12 19 1021.8 1021.8 0.0
04/04:00am 14.0 9.9 8.8 71 2.6 SW 20 33 11 18 1022.4 1022.4 0.0
04/03:30am 14.3 10.1 8.3 67 3.0 SSW 20 28 11 15 1022.5 1022.5 0.0
04/03:00am 14.0 10.8 8.4 69 2.8 SW 15 20 8 11 1022.3 1022.3 0.0
04/02:30am 13.8 11.2 9.5 75 2.2 SW 13 19 7 10 1022.3 1022.3 0.0
04/02:00am 14.0 10.2 9.0 72 2.5 SSW 19 30 10 16 1022.5 1022.5 0.0
04/01:30am 14.3 11.4 8.0 66 3.1 SW 13 19 7 10 1022.5 1022.5 0.0
04/01:00am 14.8 11.1 8.1 64 3.3 SSW 17 24 9 13 1022.3 1022.3 0.0
04/12:30am 14.6 10.9 8.1 65 3.2 SSW 17 24 9 13 1022.5 1022.5 0.0
04/12:00am 14.1 11.5 7.6 65 3.2 SSW 11 15 6 8 1022.7 1022.7 0.0
 
Date/Time
EST
Temp
°C
App
Temp
°C
Dew
Point
Rel
Hum
%
Delta-T
°C
Wind Press
QNH
hPa
Press
MSL
hPa
Rain
since 9 am
mm
Dir
 
Spd
km/h
Gust
km/h
Spd
kts
Gust
kts
03/11:30pm 14.8 13.1 8.3 65 3.3 SSW 7 11 4 6 1023.0 1023.0 0.0
03/11:00pm 14.6 13.2 8.8 68 2.9 SSW 6 9 3 5 1023.3 1023.3 0.0
03/10:30pm 14.7 12.8 8.9 68 2.9 SSW 9 15 5 8 1023.4 1023.4 0.0
03/10:00pm 14.7 11.3 9.1 69 2.8 SSW 17 22 9 12 1023.4 1023.4 0.0
03/09:30pm 14.6 10.6 9.0 69 2.8 SSW 20 30 11 16 1023.3 1023.3 0.0
03/09:00pm 14.5 11.0 8.9 69 2.8 SSW 17 24 9 13 1023.0 1023.0 0.0
03/08:30pm 14.9 11.4 8.8 67 3.1 SSW 17 24 9 13 1023.1 1023.1 0.0
03/08:00pm 14.8 11.4 9.0 68 2.9 SSW 17 26 9 14 1022.8 1022.8 0.0
03/07:30pm 14.5 11.4 8.7 68 2.9 SSW 15 22 8 12 1022.8 1022.8 0.0
03/07:00pm 14.6 12.2 8.5 67 3.1 SSW 11 15 6 8 1022.7 1022.7 0.0
03/06:30pm 15.1 12.7 8.8 66 3.2 SSW 11 17 6 9 1022.5 1022.5 0.0
03/06:00pm 15.1 13.2 9.0 67 3.1 SW 9 13 5 7 1022.3 1022.3 0.0
03/05:30pm 15.1 12.4 8.8 66 3.2 SSW 13 17 7 9 1021.9 1021.9 0.0
03/05:00pm 15.8 12.6 8.5 62 3.7 SSW 15 20 8 11 1021.7 1021.7 0.0
03/04:30pm 16.7 13.1 8.4 58 4.2 SSW 17 26 9 14 1021.5 1021.5 0.0
03/04:00pm 17.4 13.3 8.5 56 4.5 S 20 32 11 17 1021.3 1021.3 0.0
03/03:30pm 17.8 14.3 8.9 56 4.6 SSW 17 30 9 16 1021.1 1021.1 0.0
03/03:00pm 18.1 13.3 8.7 54 4.8 S 24 37 13 20 1020.9 1020.9 0.0
03/02:30pm 18.2 14.2 9.0 55 4.8 SSW 20 32 11 17 1020.8 1020.8 0.0
03/02:00pm 19.2 15.4 9.1 52 5.3 S 19 26 10 14 1020.8 1020.8 0.0
03/01:30pm 17.7 13.5 7.4 51 5.2 SSW 19 26 10 14 1020.9 1020.9 0.0
03/01:00pm 17.9 13.7 7.6 51 5.2 SSW 19 32 10 17 1021.1 1021.1 0.0
03/12:30pm 17.3 12.4 7.1 51 5.1 SSW 22 32 12 17 1021.3 1021.3 0.0
03/12:00pm 17.7 12.9 7.2 50 5.2 SSW 22 33 12 18 1021.7 1021.7 0.0
03/11:30am 17.2 11.8 6.4 49 5.3 SSW 24 33 13 18 1022.0 1022.0 0.0
03/11:00am 16.9 12.3 5.5 47 5.5 SW 19 28 10 15 1022.3 1022.3 0.0
03/10:30am 16.3 10.9 4.7 46 5.5 SW 22 35 12 19 1022.4 1022.4 0.0
03/10:00am 15.8 10.7 4.2 46 5.4 SSW 20 30 11 16 1022.8 1022.8 0.0
03/09:30am 15.4 10.8 3.5 45 5.4 SW 17 30 9 16 1022.6 1022.6 0.0
03/09:00am 14.6 9.9 3.1 46 5.1 SSW 17 30 9 16 1022.7 1022.7 0.0
03/08:30am 13.9 8.8 2.8 47 4.9 SSW 19 30 10 16 1022.6 1022.6 0.0
03/08:00am 13.3 8.5 2.5 48 4.7 SSW 17 35 9 19 1022.1 1022.1 0.0
03/07:30am 12.7 7.8 2.0 48 4.6 SW 17 26 9 14 1021.9 1021.9 0.0
03/07:00am 12.1 7.2 1.7 49 4.4 SW 17 22 9 12 1021.8 1021.8 0.0
03/06:30am 11.8 6.5 1.7 50 4.3 SSW 19 28 10 15 1021.3 1021.3 0.0
03/06:00am 11.8 7.2 1.4 49 4.4 SSW 15 24 8 13 1020.8 1020.8 0.0
03/05:30am 12.0 6.7 1.6 49 4.4 SSW 19 30 10 16 1020.6 1020.6 0.0
03/05:00am 11.7 6.7 1.4 49 4.3 SW 17 22 9 12 1020.3 1020.3 0.0
03/04:30am 12.1 6.5 1.4 48 4.5 SSW 20 28 11 15 1020.0 1020.0 0.0
03/04:00am 12.7 6.0 1.4 46 4.8 SSW 26 39 14 21 1019.5 1019.5 0.0
03/03:30am 12.5 6.2 1.5 47 4.7 SSW 24 35 13 19 1019.5 1019.5 0.0
03/03:00am 12.5 5.9 1.8 48 4.6 SSW 26 43 14 23 1019.3 1019.3 0.0
03/02:30am 12.6 5.6 2.2 49 4.5 SSW 28 43 15 23 1019.3 1019.3 0.0
03/02:00am 12.6 6.4 1.9 48 4.6 SSW 24 32 13 17 1019.7 1019.7 0.0
03/01:30am 13.0 6.7 1.7 46 4.9 SSW 24 33 13 18 1019.6 1019.6 0.0
03/01:00am 13.3 7.4 1.6 45 5.0 SSW 22 35 12 19 1019.4 1019.4 0.0
03/12:30am 13.3 7.7 1.3 44 5.1 SW 20 32 11 17 1019.2 1019.2 0.0
03/12:00am 13.4 7.5 1.7 45 5.0 SSW 22 28 12 15 1019.2 1019.2 0.0
 
Date/Time
EST
Temp
°C
App
Temp
°C
Dew
Point
Rel
Hum
%
Delta-T
°C
Wind Press
QNH
hPa
Press
MSL
hPa
Rain
since 9 am
mm
Dir
 
Spd
km/h
Gust
km/h
Spd
kts
Gust
kts
02/11:30pm 13.5 7.5 1.2 43 5.3 SSW 22 32 12 17 1019.1 1019.1 0.0
02/11:00pm 13.4 7.4 1.1 43 5.2 SSW 22 32 12 17 1018.9 1018.9 0.0
02/10:30pm 13.2 8.3 1.8 46 4.9 SSW 17 24 9 13 1019.2 1019.2 0.0
02/10:00pm 13.9 8.6 3.1 48 4.8 SW 20 26 11 14 1018.9 1018.9 0.0
02/09:30pm 11.1 8.4 7.2 77 1.9 SW 11 17 6 9 1018.6 1018.6 0.0
02/09:00pm 10.8 10.4 8.2 84 1.3 CALM 0 0 0 0 1018.2 1018.2 0.0
02/08:30pm 11.2 9.7 9.3 88 1.0 SW 7 9 4 5 1018.4 1018.4 0.0
02/08:00pm 11.0 9.2 9.6 91 0.7 SW 9 15 5 8 1018.2 1018.2 0.0
02/07:30pm 11.5 9.2 10.4 93 0.6 WSW 13 15 7 8 1017.7 1017.7 0.0
02/07:00pm 12.1 10.9 10.3 89 0.9 WSW 7 9 4 5 1017.5 1017.5 0.0
02/06:30pm 12.4 11.1 10.1 86 1.2 SW 7 11 4 6 1017.7 1017.7 0.0
02/06:00pm 14.2 13.5 10.0 76 2.2 S 4 7 2 4 1017.3 1017.3 0.0
02/05:30pm 14.8 13.1 9.8 72 2.6 WNW 9 11 5 6 1017.2 1017.2 0.0
02/05:00pm 16.5 14.8 9.7 64 3.5 WNW 9 11 5 6 1017.2 1017.2 0.0
02/04:30pm 18.5 16.5 10.1 58 4.5 NW 11 15 6 8 1016.8 1016.8 0.0
02/04:00pm 19.3 17.8 10.6 57 4.7 WNW 9 11 5 6 1016.7 1016.7 0.0
02/03:30pm 20.3 18.0 8.9 48 6.0 WNW 11 15 6 8 1016.7 1016.7 0.0
02/03:00pm 21.2 18.2 9.1 46 6.4 WNW 15 24 8 13 1016.6 1016.6 0.0
02/02:30pm 21.4 18.4 9.3 46 6.5 NW 15 19 8 10 1016.7 1016.7 0.0
02/02:00pm 20.8 17.4 9.1 47 6.2 NW 17 20 9 11 1016.7 1016.7 0.0
02/01:30pm 21.5 17.9 9.7 47 6.3 NW 19 26 10 14 1016.9 1016.9 0.0
02/01:00pm 21.2 18.1 8.8 45 6.5 NW 15 20 8 11 1017.3 1017.3 0.0
02/12:30pm 21.7 18.5 8.6 43 6.9 NW 15 20 8 11 1017.6 1017.6 0.0
02/12:00pm 20.5 18.5 12.7 61 4.4 NNE 15 20 8 11 1018.4 1018.4 0.0
02/11:30am 20.1 17.7 12.8 63 4.1 N 17 22 9 12 1019.2 1019.2 0.0
02/11:00am 19.5 17.0 12.3 63 4.0 N 17 20 9 11 1019.9 1019.9 0.0
02/10:30am 19.4 17.8 12.7 65 3.8 N 13 17 7 9 1020.4 1020.4 0.0
02/10:00am 18.7 18.1 13.6 72 2.9 NNE 9 13 5 7 1020.8 1020.8 0.0
02/09:30am 18.4 19.0 13.0 71 3.0 NW 2 9 1 5 1021.3 1021.3 0.0
02/09:00am 16.6 16.5 13.3 81 1.8 SSE 6 7 3 4 1020.9 1020.9 0.2
02/08:30am 14.5 14.0 12.5 88 1.1 SW 7 7 4 4 1021.0 1021.0 0.2
02/08:00am 13.1 12.6 12.2 94 0.5 WSW 6 7 3 4 1020.8 1020.8 0.2
02/07:30am 12.0 12.5 11.5 97 0.3 CALM 0 0 0 0 1020.6 1020.6 0.2
02/07:10am 10.4 10.4 9.8 96 0.3 CALM 0 0 0 0 1020.5 1020.5 0.2
02/07:00am 9.8 9.6 9.2 96 0.3 CALM 0 0 0 0 1020.5 1020.5 0.2
02/06:52am 9.3 9.0 8.7 96 0.3 CALM 0 0 0 0 1020.5 1020.5 0.2
02/06:30am 10.4 10.4 9.8 96 0.3 CALM 0 0 0 0 1020.2 1020.2 0.2
02/06:00am 9.6 8.9 8.7 94 0.4 SSW 2 9 1 5 1019.8 1019.8 0.2
02/05:30am 10.5 10.0 9.4 93 0.5 SW 2 7 1 4 1019.8 1019.8 0.2
02/05:00am 11.3 10.1 10.4 94 0.5 WSW 7 9 4 5 1019.6 1019.6 0.2
02/04:30am 12.0 10.7 11.1 94 0.5 WSW 9 11 5 6 1019.7 1019.7 0.2
02/04:00am 12.2 10.9 11.4 95 0.4 WSW 9 11 5 6 1019.9 1019.9 0.2
02/03:30am 11.7 11.1 10.4 92 0.7 SW 4 9 2 5 1020.1 1020.1 0.2
02/03:00am 12.7 11.6 10.8 88 1.0 SSW 7 11 4 6 1020.1 1020.1 0.2
02/02:30am 13.8 12.7 11.8 88 1.1 SW 9 11 5 6 1020.2 1020.2 0.2
02/02:00am 14.6 14.2 12.5 87 1.1 S 6 9 3 5 1020.4 1020.4 0.2
02/01:30am 15.2 13.7 13.1 87 1.2 SW 13 19 7 10 1020.6 1020.6 0.2
02/01:00am 14.9 14.0 13.6 92 0.7 SSW 11 19 6 10 1020.8 1020.8 0.0
02/12:30am 13.6 12.8 13.0 96 0.3 SSW 9 11 5 6 1021.0 1021.0 0.0
02/12:00am 13.4 13.1 12.8 96 0.3 SW 6 11 3 6 1021.4 1021.4 0.0
 
Date/Time
EST
Temp
°C
App
Temp
°C
Dew
Point
Rel
Hum
%
Delta-T
°C
Wind Press
QNH
hPa
Press
MSL
hPa
Rain
since 9 am
mm
Dir
 
Spd
km/h
Gust
km/h
Spd
kts
Gust
kts
01/11:30pm 13.3 13.0 12.7 96 0.3 SSW 6 7 3 4 1021.3 1021.3 0.0
01/11:00pm 13.3 12.8 12.5 95 0.4 SW 7 9 4 5 1021.6 1021.6 0.0
01/10:30pm 13.5 13.0 12.7 95 0.4 SW 7 9 4 5 1021.6 1021.6 0.0
01/10:00pm 13.8 13.4 12.9 94 0.5 SW 7 7 4 4 1021.8 1021.8 0.0
01/09:30pm 13.8 13.9 12.7 93 0.6 SSW 4 9 2 5 1022.0 1022.0 0.0
01/09:00pm 14.0 13.5 12.7 92 0.7 SSW 7 9 4 5 1022.0 1022.0 0.0
01/08:30pm 14.3 13.9 13.0 92 0.7 SW 7 9 4 5 1022.0 1022.0 0.0
01/08:00pm 14.8 13.8 13.5 92 0.7 WSW 11 13 6 7 1021.9 1021.9 0.0
01/07:30pm 15.1 15.1 13.5 90 0.9 WSW 6 9 3 5 1021.9 1021.9 0.0
01/07:00pm 15.2 14.0 13.9 92 0.7 SW 13 17 7 9 1021.5 1021.5 0.0
01/06:30pm 15.4 14.1 13.8 90 0.9 WSW 13 17 7 9 1021.3 1021.3 0.0
01/06:00pm 15.7 15.0 14.2 91 0.8 SW 11 15 6 8 1021.1 1021.1 0.0
01/05:30pm 16.0 16.1 14.0 88 1.1 WSW 6 7 3 4 1020.9 1020.9 0.0
01/05:00pm 16.6 17.6 13.1 80 1.9 CALM 0 0 0 0 1020.7 1020.7 0.0

Other Formats:

Comma delimited format used in spreadsheet applications
http://www.bom.gov.au/fwo/IDN60801/IDN60801.94592.axf

JavaScript Object Notation format (JSON) in row-major order
http://www.bom.gov.au/fwo/IDN60801/IDN60801.94592.json